createdAt,value
2019-02-28T00:01:08.055Z,3.61
2019-02-28T00:03:37.894Z,3.59
2019-02-28T00:06:11.733Z,3.51
2019-02-28T00:08:39.041Z,3.50
2019-02-28T00:11:08.856Z,3.47
2019-02-28T00:13:38.565Z,3.47
2019-02-28T00:16:08.334Z,3.48
2019-02-28T00:18:38.174Z,3.37
2019-02-28T00:21:07.945Z,3.35
2019-02-28T00:23:38.715Z,3.36
2019-02-28T00:26:11.289Z,3.32
2019-02-28T00:28:39.953Z,3.34
2019-02-28T00:31:14.203Z,3.34
2019-02-28T00:33:42.111Z,3.33
2019-02-28T00:36:11.939Z,3.30
2019-02-28T00:38:41.625Z,3.33
2019-02-28T00:41:11.452Z,3.34
2019-02-28T00:43:41.253Z,3.39
2019-02-28T00:46:11.071Z,3.44
2019-02-28T00:48:40.818Z,3.41
2019-02-28T00:51:10.490Z,3.38
2019-02-28T00:53:40.379Z,3.38
2019-02-28T00:56:10.156Z,3.29
2019-02-28T00:58:40.200Z,3.18
2019-02-28T01:01:11.481Z,3.06
2019-02-28T01:03:42.281Z,3.11
2019-02-28T01:06:12.067Z,3.11
2019-02-28T01:08:41.747Z,3.10
2019-02-28T01:11:13.242Z,3.19
2019-02-28T01:13:43.104Z,3.11
2019-02-28T01:16:16.090Z,3.05
2019-02-28T01:18:46.721Z,3.05
2019-02-28T01:21:16.453Z,3.07
2019-02-28T01:23:47.164Z,3.10
2019-02-28T01:26:16.979Z,3.12
2019-02-28T01:28:46.753Z,3.05
2019-02-28T01:31:16.651Z,3.08
2019-02-28T01:33:46.456Z,3.11
2019-02-28T01:36:16.339Z,3.11
2019-02-28T01:38:47.802Z,3.11
2019-02-28T01:41:17.658Z,3.08
2019-02-28T01:43:47.346Z,2.93
2019-02-28T01:46:17.864Z,2.92
2019-02-28T01:48:47.701Z,2.74
2019-02-28T01:51:17.580Z,2.55
2019-02-28T01:53:50.426Z,2.55
2019-02-28T01:56:20.462Z,2.51
2019-02-28T01:58:50.496Z,2.41
2019-02-28T02:01:24.024Z,2.40
2019-02-28T02:03:53.802Z,2.41
2019-02-28T02:06:25.762Z,2.40
2019-02-28T02:08:55.019Z,2.36
2019-02-28T02:11:26.700Z,2.30
2019-02-28T02:13:56.382Z,2.44
2019-02-28T02:16:27.747Z,2.23
2019-02-28T02:18:57.616Z,2.26
2019-02-28T02:21:27.410Z,2.30
2019-02-28T02:23:56.984Z,2.40
2019-02-28T02:26:26.793Z,2.44
2019-02-28T02:29:00.890Z,2.50
2019-02-28T02:31:29.177Z,2.53
2019-02-28T02:33:59.010Z,2.57
2019-02-28T02:36:28.792Z,2.53
2019-02-28T02:38:58.676Z,2.41
2019-02-28T02:41:33.275Z,2.38
2019-02-28T02:43:59.980Z,2.43
2019-02-28T02:46:29.701Z,2.42
2019-02-28T02:48:59.500Z,2.35
2019-02-28T02:51:30.138Z,2.35
2019-02-28T02:53:59.976Z,2.30
2019-02-28T02:56:29.755Z,2.28
2019-02-28T02:59:01.083Z,2.30
2019-02-28T03:01:31.022Z,2.25
2019-02-28T03:04:00.950Z,2.26
2019-02-28T03:06:30.726Z,2.24
2019-02-28T03:09:00.525Z,2.25
2019-02-28T03:11:30.331Z,2.21
2019-02-28T03:14:00.343Z,2.20
2019-02-28T03:16:33.021Z,2.08
2019-02-28T03:19:01.436Z,2.03
2019-02-28T03:21:31.358Z,2.08
2019-02-28T03:24:01.179Z,1.87
2019-02-28T03:26:30.973Z,1.92
2019-02-28T03:29:07.498Z,1.94
2019-02-28T03:31:32.224Z,2.00
2019-02-28T03:34:10.024Z,2.02
2019-02-28T03:36:33.458Z,1.97
2019-02-28T03:39:04.403Z,1.82
2019-02-28T03:41:34.214Z,1.71
2019-02-28T03:44:04.109Z,1.72
2019-02-28T03:46:33.943Z,1.58
2019-02-28T03:49:11.173Z,1.64
2019-02-28T03:51:35.255Z,1.55
2019-02-28T03:54:05.021Z,1.23
2019-02-28T03:56:34.774Z,1.18
2019-02-28T03:59:04.527Z,1.27
2019-02-28T04:01:34.330Z,1.38
2019-02-28T04:04:10.851Z,1.41
2019-02-28T04:06:39.524Z,1.53
2019-02-28T04:09:08.449Z,1.60
2019-02-28T04:11:38.865Z,1.64
2019-02-28T04:14:08.641Z,1.49
2019-02-28T04:16:38.319Z,1.49
2019-02-28T04:19:08.162Z,1.58
2019-02-28T04:21:37.829Z,1.58
2019-02-28T04:24:12.454Z,1.49
2019-02-28T04:26:39.143Z,1.50
2019-02-28T04:29:10.566Z,1.46
2019-02-28T04:31:40.315Z,1.46
2019-02-28T04:34:13.523Z,1.43
2019-02-28T04:36:41.518Z,1.52
2019-02-28T04:39:11.337Z,1.64
2019-02-28T04:41:41.995Z,1.64
2019-02-28T04:44:12.203Z,1.65
2019-02-28T04:46:42.009Z,1.65
2019-02-28T04:49:11.732Z,1.56
2019-02-28T04:51:43.036Z,1.54
2019-02-28T04:54:12.887Z,1.45
2019-02-28T04:56:45.584Z,1.45
2019-02-28T04:59:14.234Z,1.43
2019-02-28T05:01:45.307Z,1.39
2019-02-28T05:04:16.537Z,1.29
2019-02-28T05:06:46.326Z,1.29
2019-02-28T05:09:16.059Z,1.28
2019-02-28T05:11:45.878Z,1.28
2019-02-28T05:14:16.472Z,1.32
2019-02-28T05:16:47.533Z,1.28
2019-02-28T05:19:18.016Z,1.10
2019-02-28T05:21:50.580Z,1.17
2019-02-28T05:24:19.302Z,1.15
2019-02-28T05:26:49.118Z,1.12
2019-02-28T05:29:18.846Z,1.14
2019-02-28T05:31:48.749Z,1.14
2019-02-28T05:34:19.049Z,1.23
2019-02-28T05:36:48.833Z,1.23
2019-02-28T05:39:18.658Z,1.22
2019-02-28T05:41:49.449Z,1.23
2019-02-28T05:44:21.359Z,1.07
2019-02-28T05:46:51.395Z,1.07
2019-02-28T05:49:21.178Z,1.11
2019-02-28T05:51:50.973Z,1.12
2019-02-28T05:54:20.861Z,1.41
2019-02-28T05:56:51.479Z,2.74
2019-02-28T05:59:26.210Z,2.93
2019-02-28T06:01:52.756Z,2.49
2019-02-28T06:04:22.587Z,2.46
2019-02-28T06:06:54.684Z,2.22
2019-02-28T06:09:24.814Z,2.32
2019-02-28T06:11:54.600Z,2.32
2019-02-28T06:14:27.621Z,2.37
2019-02-28T06:16:55.878Z,2.42
2019-02-28T06:19:25.735Z,2.74
2019-02-28T06:21:59.068Z,3.06
2019-02-28T06:24:27.271Z,3.44
2019-02-28T06:26:57.069Z,3.51
2019-02-28T06:29:26.861Z,3.70
2019-02-28T06:31:56.633Z,4.01
2019-02-28T06:34:26.731Z,4.41
2019-02-28T06:36:57.296Z,4.56
2019-02-28T06:39:27.679Z,4.86
2019-02-28T06:41:57.465Z,5.00
2019-02-28T06:44:27.804Z,5.57
2019-02-28T06:46:59.121Z,6.60
2019-02-28T06:49:28.891Z,7.60
2019-02-28T06:51:59.478Z,8.13
2019-02-28T06:54:29.963Z,7.87
2019-02-28T06:56:59.894Z,8.34
2019-02-28T06:59:29.673Z,8.69
2019-02-28T07:02:01.788Z,8.80
2019-02-28T07:04:32.519Z,8.86
2019-02-28T07:07:02.233Z,8.98
2019-02-28T07:09:33.647Z,9.10
2019-02-28T07:12:04.512Z,9.02
2019-02-28T07:14:34.431Z,9.02
2019-02-28T07:17:04.209Z,8.94
2019-02-28T07:19:37.126Z,8.92
2019-02-28T07:22:09.398Z,8.84
2019-02-28T07:24:39.201Z,8.89
2019-02-28T07:27:09.055Z,8.97
2019-02-28T07:29:39.151Z,9.21
2019-02-28T07:32:08.950Z,9.26
2019-02-28T07:34:41.116Z,9.21
2019-02-28T07:37:13.381Z,9.35
2019-02-28T07:39:43.206Z,9.49
2019-02-28T07:42:13.933Z,9.45
2019-02-28T07:44:44.173Z,9.57
2019-02-28T07:47:17.186Z,9.55
2019-02-28T07:49:50.273Z,9.76
2019-02-28T07:52:22.190Z,9.95
2019-02-28T07:54:55.525Z,10.05
2019-02-28T07:57:23.823Z,10.10
2019-02-28T07:59:53.576Z,10.19
2019-02-28T08:02:23.741Z,10.41
2019-02-28T08:04:54.377Z,10.48
2019-02-28T08:07:25.256Z,10.57
2019-02-28T08:09:55.033Z,10.55
2019-02-28T08:12:27.488Z,10.74
2019-02-28T08:15:00.105Z,10.84
2019-02-28T08:17:29.845Z,10.97
2019-02-28T08:20:01.038Z,11.06
2019-02-28T08:22:33.155Z,11.18
2019-02-28T08:25:02.967Z,11.18
2019-02-28T08:27:32.763Z,11.38
2019-02-28T08:30:02.541Z,11.55
2019-02-28T08:32:33.800Z,11.48
2019-02-28T08:35:06.933Z,11.44
2019-02-28T08:37:37.493Z,11.73
2019-02-28T08:40:12.596Z,11.76
2019-02-28T08:42:41.977Z,11.97
2019-02-28T08:45:14.371Z,12.41
2019-02-28T08:47:44.156Z,12.53
2019-02-28T08:50:23.172Z,12.74
2019-02-28T08:53:02.638Z,12.95
2019-02-28T08:55:32.744Z,13.30
2019-02-28T08:58:06.062Z,13.33
2019-02-28T09:00:37.792Z,13.43
2019-02-28T09:03:07.861Z,13.76
2019-02-28T09:05:37.606Z,13.99
2019-02-28T09:08:07.470Z,14.29
2019-02-28T09:10:37.666Z,14.43
2019-02-28T09:13:08.683Z,14.24
2019-02-28T09:15:38.756Z,14.18
2019-02-28T09:18:08.763Z,14.45
2019-02-28T09:20:45.117Z,14.69
2019-02-28T09:23:13.936Z,14.84
2019-02-28T09:25:43.761Z,14.98
2019-02-28T09:28:13.833Z,15.16
2019-02-28T09:30:46.319Z,15.33
2019-02-28T09:33:19.347Z,15.35
2019-02-28T09:35:48.097Z,15.44
2019-02-28T09:38:17.924Z,15.54
2019-02-28T09:40:48.131Z,15.70
2019-02-28T09:43:23.845Z,15.79
2019-02-28T09:45:53.037Z,15.75
2019-02-28T09:48:22.743Z,15.79
2019-02-28T09:50:57.993Z,15.86
2019-02-28T09:53:24.956Z,15.94
2019-02-28T09:55:54.743Z,16.02
2019-02-28T09:58:26.187Z,16.08
2019-02-28T10:00:58.235Z,16.11
2019-02-28T10:03:30.591Z,16.26
2019-02-28T10:06:03.304Z,16.30
2019-02-28T10:08:36.589Z,16.39
2019-02-28T10:11:05.307Z,16.47
2019-02-28T10:13:37.435Z,16.59
2019-02-28T10:16:09.610Z,16.66
2019-02-28T10:18:40.088Z,16.73
2019-02-28T10:21:09.985Z,16.77
2019-02-28T10:23:39.840Z,16.79
2019-02-28T10:26:14.354Z,16.86
2019-02-28T10:28:44.854Z,16.93
2019-02-28T10:31:22.834Z,16.92
2019-02-28T10:33:53.206Z,16.93
2019-02-28T10:36:22.999Z,16.96
2019-02-28T10:38:53.419Z,17.01
2019-02-28T10:41:24.201Z,17.00
2019-02-28T10:43:55.925Z,17.01
2019-02-28T10:46:27.434Z,17.04
2019-02-28T10:48:57.761Z,17.08
2019-02-28T10:51:29.656Z,17.10
2019-02-28T10:53:59.663Z,17.05
2019-02-28T10:56:32.049Z,16.85
2019-02-28T10:59:04.451Z,16.81
2019-02-28T11:01:34.179Z,16.80
2019-02-28T11:04:07.455Z,16.84
2019-02-28T11:06:39.717Z,16.81
2019-02-28T11:09:10.926Z,16.79
2019-02-28T11:11:42.492Z,16.83
2019-02-28T11:14:16.356Z,16.84
2019-02-28T11:16:46.997Z,16.81
2019-02-28T11:19:19.479Z,16.82
2019-02-28T11:21:52.696Z,16.83
2019-02-28T11:24:23.726Z,16.98
2019-02-28T11:26:55.549Z,16.99
2019-02-28T11:29:25.757Z,16.99
2019-02-28T11:31:59.434Z,17.02
2019-02-28T11:34:30.006Z,17.05
2019-02-28T11:37:00.289Z,17.12
2019-02-28T11:39:33.665Z,17.14
2019-02-28T11:42:03.551Z,17.11
2019-02-28T11:44:33.399Z,17.05
2019-02-28T11:47:04.406Z,16.99
2019-02-28T11:49:35.140Z,16.90
2019-02-28T11:52:04.785Z,16.82
2019-02-28T11:54:37.835Z,16.79
2019-02-28T11:57:07.660Z,16.78
2019-02-28T11:59:37.333Z,16.76
2019-02-28T12:02:07.271Z,16.74
2019-02-28T12:04:41.386Z,16.78
2019-02-28T12:07:13.054Z,16.87
2019-02-28T12:09:43.609Z,17.00
2019-02-28T12:12:13.259Z,17.22
2019-02-28T12:14:45.189Z,17.36
2019-02-28T12:17:15.821Z,17.41
2019-02-28T12:19:47.672Z,17.51
2019-02-28T12:22:17.241Z,17.63
2019-02-28T12:24:47.173Z,17.79
2019-02-28T12:27:18.822Z,17.95
2019-02-28T12:29:51.114Z,18.11
2019-02-28T12:32:20.962Z,18.41
2019-02-28T12:34:51.090Z,18.62
2019-02-28T12:37:22.109Z,18.83
2019-02-28T12:39:52.518Z,18.96
2019-02-28T12:42:24.677Z,18.86
2019-02-28T12:44:54.544Z,18.83
2019-02-28T12:47:29.429Z,18.40
2019-02-28T12:50:02.518Z,18.97
2019-02-28T12:52:32.322Z,19.12
2019-02-28T12:55:04.057Z,19.48
2019-02-28T12:57:36.855Z,19.53
2019-02-28T13:00:25.235Z,19.51
2019-02-28T13:02:58.442Z,19.50
2019-02-28T13:05:28.303Z,19.54
2019-02-28T13:07:58.210Z,19.56
2019-02-28T13:10:31.053Z,19.54
2019-02-28T13:13:06.126Z,19.56
2019-02-28T13:15:32.999Z,19.58
2019-02-28T13:18:08.971Z,19.60
2019-02-28T13:20:42.196Z,19.63
2019-02-28T13:23:17.180Z,19.66
2019-02-28T13:25:48.741Z,19.81
2019-02-28T13:28:22.089Z,19.96
2019-02-28T13:30:52.053Z,19.89
2019-02-28T13:33:24.226Z,20.22
2019-02-28T13:35:54.156Z,20.34
2019-02-28T13:38:24.055Z,20.20
2019-02-28T13:40:56.305Z,20.20
2019-02-28T13:43:31.970Z,20.28
2019-02-28T13:46:02.402Z,19.87
2019-02-28T13:48:34.960Z,19.87
2019-02-28T13:51:08.467Z,19.68
2019-02-28T13:53:38.919Z,19.59
2019-02-28T13:56:09.732Z,19.51
2019-02-28T13:58:39.559Z,19.44
2019-02-28T14:01:10.493Z,19.36
2019-02-28T14:03:42.240Z,19.29
2019-02-28T14:06:18.718Z,19.21
2019-02-28T14:08:49.236Z,19.21
2019-02-28T14:11:19.327Z,19.12
2019-02-28T14:13:52.344Z,19.06
2019-02-28T14:16:26.523Z,19.06
2019-02-28T14:18:56.208Z,19.06
2019-02-28T14:21:29.160Z,19.01
2019-02-28T14:23:59.805Z,18.97
2019-02-28T14:26:31.228Z,18.91
2019-02-28T14:29:01.614Z,18.93
2019-02-28T14:31:32.984Z,19.21
2019-02-28T14:34:03.769Z,19.74
2019-02-28T14:36:34.338Z,20.30
2019-02-28T14:39:08.262Z,20.44
2019-02-28T14:41:37.752Z,20.27
2019-02-28T14:44:07.976Z,20.24
2019-02-28T14:46:37.875Z,19.95
2019-02-28T14:49:12.533Z,20.07
2019-02-28T14:51:41.302Z,19.74
2019-02-28T14:54:12.956Z,19.40
2019-02-28T14:56:44.376Z,19.76
2019-02-28T14:59:15.002Z,19.91
2019-02-28T15:01:49.579Z,19.81
2019-02-28T15:04:21.081Z,19.78
2019-02-28T15:06:51.072Z,19.99
2019-02-28T15:09:24.121Z,19.83
2019-02-28T15:11:53.039Z,19.98
2019-02-28T15:14:23.812Z,19.81
2019-02-28T15:16:54.521Z,19.79
2019-02-28T15:19:25.397Z,19.77
2019-02-28T15:21:55.452Z,19.65
2019-02-28T15:24:25.279Z,19.85
2019-02-28T15:26:55.327Z,19.84
2019-02-28T15:29:26.941Z,19.77
2019-02-28T15:31:56.838Z,19.69
2019-02-28T15:34:26.817Z,19.54
2019-02-28T15:37:00.206Z,19.63
2019-02-28T15:39:32.494Z,19.23
2019-02-28T15:42:02.362Z,19.10
2019-02-28T15:44:33.026Z,18.86
2019-02-28T15:47:04.720Z,18.64
2019-02-28T15:49:34.334Z,18.63
2019-02-28T15:52:05.283Z,18.47
2019-02-28T15:54:35.878Z,18.41
2019-02-28T15:57:06.121Z,18.96
2019-02-28T15:59:35.980Z,16.61
2019-02-28T16:02:06.377Z,18.94
2019-02-28T16:04:38.723Z,19.21
2019-02-28T16:07:09.402Z,19.15
2019-02-28T16:09:39.951Z,18.86
2019-02-28T16:12:12.517Z,18.98
2019-02-28T16:14:44.224Z,19.00
2019-02-28T16:17:14.028Z,19.09
2019-02-28T16:19:44.075Z,18.98
2019-02-28T16:22:14.632Z,18.94
2019-02-28T16:24:45.825Z,18.78
2019-02-28T16:27:15.564Z,18.44
2019-02-28T16:29:45.516Z,18.74
2019-02-28T16:32:15.470Z,18.64
2019-02-28T16:34:46.277Z,18.59
2019-02-28T16:37:16.604Z,18.47
2019-02-28T16:39:49.166Z,17.13
2019-02-28T16:42:18.786Z,18.75
2019-02-28T16:44:48.813Z,18.64
2019-02-28T16:47:21.464Z,18.41
2019-02-28T16:49:51.704Z,18.57
2019-02-28T16:52:22.656Z,18.66
2019-02-28T16:54:56.287Z,18.59
2019-02-28T16:57:25.321Z,18.63
2019-02-28T16:59:55.500Z,18.49
2019-02-28T17:02:26.416Z,18.62
2019-02-28T17:04:56.334Z,18.40
2019-02-28T17:07:26.651Z,18.21
2019-02-28T17:09:57.813Z,17.93
2019-02-28T17:12:35.060Z,17.97
2019-02-28T17:15:08.805Z,18.33
2019-02-28T17:17:43.543Z,18.26
2019-02-28T17:20:12.572Z,18.34
2019-02-28T17:22:42.836Z,18.43
2019-02-28T17:25:14.137Z,18.31
2019-02-28T17:27:45.835Z,18.38
2019-02-28T17:30:21.059Z,18.41
2019-02-28T17:32:51.381Z,18.32
2019-02-28T17:35:22.244Z,18.31
2019-02-28T17:37:53.175Z,18.23
2019-02-28T17:40:26.218Z,18.15
2019-02-28T17:42:56.465Z,18.17
2019-02-28T17:45:26.805Z,18.19
2019-02-28T17:48:14.906Z,18.23
2019-02-28T17:50:48.372Z,18.14
2019-02-28T17:53:53.374Z,17.85
2019-02-28T17:56:44.670Z,17.86
2019-02-28T17:59:43.639Z,17.93
2019-02-28T18:02:33.041Z,17.70
2019-02-28T18:05:11.793Z,17.53
2019-02-28T18:07:57.790Z,17.64
2019-02-28T18:11:01.189Z,17.73
2019-02-28T18:13:39.675Z,17.68
2019-02-28T18:16:31.908Z,17.53
2019-02-28T18:19:33.291Z,17.56
2019-02-28T18:22:24.267Z,17.76
2019-02-28T18:25:14.010Z,17.63
2019-02-28T18:27:51.021Z,17.54
2019-02-28T18:30:35.727Z,17.33
2019-02-28T18:33:10.190Z,17.18
2019-02-28T18:35:41.060Z,17.20
2019-02-28T18:38:11.005Z,17.29
2019-02-28T18:40:41.859Z,17.09
2019-02-28T18:43:11.726Z,17.27
2019-02-28T18:45:42.698Z,17.32
2019-02-28T18:48:14.654Z,16.99
2019-02-28T18:50:44.243Z,16.89
2019-02-28T18:53:15.282Z,16.69
2019-02-28T18:55:45.067Z,16.52
2019-02-28T18:58:15.076Z,16.50
2019-02-28T19:00:45.980Z,16.52
2019-02-28T19:03:17.564Z,16.38
2019-02-28T19:05:48.001Z,16.19
2019-02-28T19:08:19.089Z,16.02
2019-02-28T19:10:49.832Z,16.10
2019-02-28T19:13:20.497Z,15.95
2019-02-28T19:15:51.525Z,15.93
2019-02-28T19:18:23.239Z,15.97
2019-02-28T19:20:53.017Z,16.24
2019-02-28T19:23:32.040Z,16.36
2019-02-28T19:26:03.339Z,16.41
2019-02-28T19:28:37.892Z,16.23
2019-02-28T19:31:10.304Z,15.97
2019-02-28T19:33:41.400Z,15.80
2019-02-28T19:36:12.189Z,15.68
2019-02-28T19:38:42.595Z,15.67
2019-02-28T19:41:13.314Z,15.78
2019-02-28T19:43:43.721Z,15.62
2019-02-28T19:46:13.887Z,15.48
2019-02-28T19:48:44.066Z,15.36
2019-02-28T19:51:14.796Z,15.29
2019-02-28T19:53:45.069Z,15.57
2019-02-28T19:56:16.896Z,15.65
2019-02-28T19:58:46.903Z,15.68
2019-02-28T20:01:19.652Z,15.95
2019-02-28T20:03:49.464Z,15.86
2019-02-28T20:06:23.137Z,15.73
2019-02-28T20:08:53.943Z,15.58
2019-02-28T20:11:24.743Z,15.75
2019-02-28T20:13:54.561Z,15.64
2019-02-28T20:16:24.433Z,16.03
2019-02-28T20:18:54.304Z,16.33
2019-02-28T20:21:24.187Z,16.20
2019-02-28T20:23:54.137Z,16.34
2019-02-28T20:26:24.832Z,16.17
2019-02-28T20:28:55.603Z,16.46
2019-02-28T20:31:25.650Z,16.65
2019-02-28T20:33:55.467Z,16.60
2019-02-28T20:36:25.525Z,16.63
2019-02-28T20:38:55.427Z,16.58
2019-02-28T20:41:25.398Z,16.59
2019-02-28T20:43:55.230Z,16.30
2019-02-28T20:46:26.060Z,16.00
2019-02-28T20:48:55.977Z,15.75
2019-02-28T20:51:25.641Z,15.60
2019-02-28T20:53:55.461Z,15.46
2019-02-28T20:56:26.240Z,15.69
2019-02-28T20:58:56.013Z,15.96
2019-02-28T21:01:25.831Z,15.71
2019-02-28T21:03:56.734Z,15.46
2019-02-28T21:06:26.721Z,15.28
2019-02-28T21:08:57.617Z,15.27
2019-02-28T21:11:27.432Z,15.33
2019-02-28T21:13:57.333Z,15.25
2019-02-28T21:16:27.169Z,15.37
2019-02-28T21:18:58.322Z,15.38
2019-02-28T21:21:29.262Z,15.16
2019-02-28T21:23:59.085Z,14.97
2019-02-28T21:26:29.116Z,15.01
2019-02-28T21:28:58.758Z,14.84
2019-02-28T21:31:28.599Z,14.68
2019-02-28T21:33:58.851Z,14.53
2019-02-28T21:36:28.677Z,14.40
2019-02-28T21:38:58.478Z,14.27
2019-02-28T21:41:28.295Z,14.17
2019-02-28T21:43:58.432Z,14.09
2019-02-28T21:46:28.295Z,14.06
2019-02-28T21:48:58.354Z,13.97
2019-02-28T21:51:27.983Z,13.87
2019-02-28T21:53:57.761Z,13.85
2019-02-28T21:56:27.569Z,13.85
2019-02-28T21:58:57.739Z,13.92
2019-02-28T22:01:27.599Z,13.87
2019-02-28T22:03:57.398Z,13.84
2019-02-28T22:06:27.193Z,13.80
2019-02-28T22:08:58.940Z,13.78
2019-02-28T22:11:28.838Z,13.85
2019-02-28T22:14:00.178Z,14.18
2019-02-28T22:16:29.850Z,14.13
2019-02-28T22:19:00.478Z,14.01
2019-02-28T22:21:30.655Z,13.95
2019-02-28T22:24:01.469Z,14.07
2019-02-28T22:26:35.409Z,14.41
2019-02-28T22:29:06.088Z,14.34
2019-02-28T22:31:43.740Z,14.31
2019-02-28T22:34:16.001Z,14.20
2019-02-28T22:36:45.895Z,14.19
2019-02-28T22:39:15.700Z,14.08
2019-02-28T22:41:48.066Z,14.37
2019-02-28T22:44:17.851Z,14.32
2019-02-28T22:46:47.783Z,14.72
2019-02-28T22:49:17.522Z,14.41
2019-02-28T22:51:47.291Z,14.17
2019-02-28T22:54:17.258Z,14.19
2019-02-28T22:56:46.926Z,13.94
2019-02-28T22:59:16.668Z,13.83
2019-02-28T23:01:46.535Z,13.78
2019-02-28T23:04:16.312Z,13.61
2019-02-28T23:06:47.486Z,13.44
2019-02-28T23:09:17.296Z,13.33
2019-02-28T23:11:47.630Z,13.26
2019-02-28T23:14:17.562Z,13.13
2019-02-28T23:16:47.417Z,12.99
2019-02-28T23:19:17.236Z,12.87
2019-02-28T23:21:48.611Z,12.81
2019-02-28T23:24:18.685Z,12.74
2019-02-28T23:27:15.277Z,12.70
2019-02-28T23:29:53.378Z,12.88
2019-02-28T23:32:35.380Z,12.89
2019-02-28T23:35:13.767Z,12.82
2019-02-28T23:37:43.568Z,12.65
2019-02-28T23:40:13.624Z,12.59
2019-02-28T23:42:43.501Z,12.77
2019-02-28T23:45:13.653Z,12.84
2019-02-28T23:47:45.281Z,12.64
2019-02-28T23:50:15.835Z,12.39
2019-02-28T23:52:46.595Z,12.30
2019-02-28T23:55:18.411Z,12.28
2019-02-28T23:57:48.101Z,12.07
